sensor_id;sensor_type;location;lat;lon;timestamp;P1;durP1;ratioP1;P2;durP2;ratioP2
819;SDS011;392;48.838;2.322;2023-06-04T00:01:41;6.50;;;5.00;;
819;SDS011;392;48.838;2.322;2023-06-04T00:04:10;4.70;;;4.30;;
819;SDS011;392;48.838;2.322;2023-06-04T00:06:37;5.00;;;4.60;;
819;SDS011;392;48.838;2.322;2023-06-04T00:09:05;5.10;;;4.70;;
819;SDS011;392;48.838;2.322;2023-06-04T00:11:32;5.27;;;4.77;;
819;SDS011;392;48.838;2.322;2023-06-04T00:14:02;4.03;;;3.73;;
819;SDS011;392;48.838;2.322;2023-06-04T00:16:29;5.43;;;5.03;;
819;SDS011;392;48.838;2.322;2023-06-04T00:18:56;7.90;;;5.17;;
819;SDS011;392;48.838;2.322;2023-06-04T00:21:24;5.60;;;4.77;;
819;SDS011;392;48.838;2.322;2023-06-04T00:23:51;4.97;;;4.50;;
819;SDS011;392;48.838;2.322;2023-06-04T00:26:18;5.10;;;4.70;;
819;SDS011;392;48.838;2.322;2023-06-04T00:28:47;5.17;;;4.77;;
819;SDS011;392;48.838;2.322;2023-06-04T00:31:16;4.50;;;4.20;;
819;SDS011;392;48.838;2.322;2023-06-04T00:33:43;9.70;;;4.70;;
819;SDS011;392;48.838;2.322;2023-06-04T00:36:10;4.83;;;4.37;;
819;SDS011;392;48.838;2.322;2023-06-04T00:38:38;4.73;;;4.30;;
819;SDS011;392;48.838;2.322;2023-06-04T00:41:05;6.73;;;4.47;;
819;SDS011;392;48.838;2.322;2023-06-04T00:43:32;4.90;;;4.50;;
819;SDS011;392;48.838;2.322;2023-06-04T00:46:01;5.17;;;4.43;;
819;SDS011;392;48.838;2.322;2023-06-04T00:48:30;6.20;;;4.70;;
819;SDS011;392;48.838;2.322;2023-06-04T00:50:57;4.60;;;4.27;;
819;SDS011;392;48.838;2.322;2023-06-04T00:53:25;7.00;;;4.70;;
819;SDS011;392;48.838;2.322;2023-06-04T00:55:52;5.53;;;5.03;;
819;SDS011;392;48.838;2.322;2023-06-04T00:58:20;4.57;;;4.27;;
819;SDS011;392;48.838;2.322;2023-06-04T01:00:47;4.40;;;4.00;;
819;SDS011;392;48.838;2.322;2023-06-04T01:03:17;4.67;;;4.27;;
819;SDS011;392;48.838;2.322;2023-06-04T01:05:51;4.70;;;4.33;;
819;SDS011;392;48.838;2.322;2023-06-04T01:08:27;4.43;;;4.13;;
819;SDS011;392;48.838;2.322;2023-06-04T01:10:55;5.03;;;4.27;;
819;SDS011;392;48.838;2.322;2023-06-04T01:13:24;4.60;;;4.30;;
819;SDS011;392;48.838;2.322;2023-06-04T01:15:51;6.37;;;4.70;;
819;SDS011;392;48.838;2.322;2023-06-04T01:18:19;5.50;;;5.03;;
819;SDS011;392;48.838;2.322;2023-06-04T01:20:56;3.93;;;3.70;;
819;SDS011;392;48.838;2.322;2023-06-04T01:23:28;4.60;;;4.20;;
819;SDS011;392;48.838;2.322;2023-06-04T01:26:04;4.50;;;4.10;;
819;SDS011;392;48.838;2.322;2023-06-04T01:28:32;4.60;;;4.20;;
819;SDS011;392;48.838;2.322;2023-06-04T01:31:01;4.50;;;4.17;;
819;SDS011;392;48.838;2.322;2023-06-04T01:33:33;5.30;;;3.80;;
819;SDS011;392;48.838;2.322;2023-06-04T01:36:02;4.40;;;4.10;;
819;SDS011;392;48.838;2.322;2023-06-04T01:38:29;4.90;;;4.53;;
819;SDS011;392;48.838;2.322;2023-06-04T01:40:57;4.50;;;4.10;;
819;SDS011;392;48.838;2.322;2023-06-04T01:43:27;4.30;;;3.93;;
819;SDS011;392;48.838;2.322;2023-06-04T01:45:55;4.30;;;4.00;;
819;SDS011;392;48.838;2.322;2023-06-04T01:48:23;4.40;;;4.00;;
819;SDS011;392;48.838;2.322;2023-06-04T01:50:50;3.93;;;3.60;;
819;SDS011;392;48.838;2.322;2023-06-04T01:53:20;4.63;;;4.20;;
819;SDS011;392;48.838;2.322;2023-06-04T01:55:48;4.23;;;3.93;;
819;SDS011;392;48.838;2.322;2023-06-04T01:58:16;4.37;;;3.97;;
819;SDS011;392;48.838;2.322;2023-06-04T02:00:48;4.00;;;3.70;;
819;SDS011;392;48.838;2.322;2023-06-04T02:03:18;4.03;;;3.73;;
819;SDS011;392;48.838;2.322;2023-06-04T02:05:46;5.00;;;4.50;;
819;SDS011;392;48.838;2.322;2023-06-04T02:08:14;6.77;;;3.80;;
819;SDS011;392;48.838;2.322;2023-06-04T02:10:46;5.50;;;4.00;;
819;SDS011;392;48.838;2.322;2023-06-04T02:13:14;4.60;;;4.20;;
819;SDS011;392;48.838;2.322;2023-06-04T02:15:42;5.30;;;3.87;;
819;SDS011;392;48.838;2.322;2023-06-04T02:18:13;4.27;;;3.93;;
819;SDS011;392;48.838;2.322;2023-06-04T02:20:44;4.13;;;3.77;;
819;SDS011;392;48.838;2.322;2023-06-04T02:23:12;4.40;;;4.03;;
819;SDS011;392;48.838;2.322;2023-06-04T02:25:40;5.03;;;3.83;;
819;SDS011;392;48.838;2.322;2023-06-04T02:28:11;6.00;;;4.03;;
819;SDS011;392;48.838;2.322;2023-06-04T02:30:39;4.77;;;4.10;;
819;SDS011;392;48.838;2.322;2023-06-04T02:33:06;4.57;;;3.90;;
819;SDS011;392;48.838;2.322;2023-06-04T02:35:35;4.30;;;3.90;;
819;SDS011;392;48.838;2.322;2023-06-04T02:38:03;3.67;;;3.37;;
819;SDS011;392;48.838;2.322;2023-06-04T02:40:31;3.50;;;3.30;;
819;SDS011;392;48.838;2.322;2023-06-04T02:42:58;4.73;;;3.37;;
819;SDS011;392;48.838;2.322;2023-06-04T02:45:27;3.57;;;3.27;;
819;SDS011;392;48.838;2.322;2023-06-04T02:47:54;5.43;;;4.00;;
819;SDS011;392;48.838;2.322;2023-06-04T02:50:22;4.40;;;4.10;;
819;SDS011;392;48.838;2.322;2023-06-04T02:52:49;4.17;;;3.77;;
819;SDS011;392;48.838;2.322;2023-06-04T02:55:16;4.77;;;4.30;;
819;SDS011;392;48.838;2.322;2023-06-04T02:57:43;5.33;;;4.10;;
819;SDS011;392;48.838;2.322;2023-06-04T03:00:12;4.00;;;3.80;;
819;SDS011;392;48.838;2.322;2023-06-04T03:02:42;4.60;;;3.83;;
819;SDS011;392;48.838;2.322;2023-06-04T03:05:13;3.80;;;3.47;;
819;SDS011;392;48.838;2.322;2023-06-04T03:07:43;4.00;;;3.50;;
819;SDS011;392;48.838;2.322;2023-06-04T03:10:12;4.20;;;3.60;;
819;SDS011;392;48.838;2.322;2023-06-04T03:12:40;4.60;;;3.50;;
819;SDS011;392;48.838;2.322;2023-06-04T03:15:08;3.73;;;3.53;;
819;SDS011;392;48.838;2.322;2023-06-04T03:17:36;3.73;;;3.43;;
819;SDS011;392;48.838;2.322;2023-06-04T03:20:06;3.93;;;3.57;;
819;SDS011;392;48.838;2.322;2023-06-04T03:22:34;3.70;;;3.40;;
819;SDS011;392;48.838;2.322;2023-06-04T03:25:02;3.27;;;3.07;;
819;SDS011;392;48.838;2.322;2023-06-04T03:27:30;3.67;;;3.40;;
819;SDS011;392;48.838;2.322;2023-06-04T03:29:58;3.93;;;3.60;;
819;SDS011;392;48.838;2.322;2023-06-04T03:32:29;4.20;;;3.80;;
819;SDS011;392;48.838;2.322;2023-06-04T03:34:56;6.47;;;3.83;;
819;SDS011;392;48.838;2.322;2023-06-04T03:37:25;3.93;;;3.60;;
819;SDS011;392;48.838;2.322;2023-06-04T03:39:54;4.00;;;3.20;;
819;SDS011;392;48.838;2.322;2023-06-04T03:42:21;3.67;;;3.40;;
819;SDS011;392;48.838;2.322;2023-06-04T03:44:48;4.10;;;3.80;;
819;SDS011;392;48.838;2.322;2023-06-04T03:47:15;4.10;;;3.80;;
819;SDS011;392;48.838;2.322;2023-06-04T03:49:43;4.00;;;3.43;;
819;SDS011;392;48.838;2.322;2023-06-04T03:52:10;3.77;;;3.30;;
819;SDS011;392;48.838;2.322;2023-06-04T03:54:41;4.43;;;3.20;;
819;SDS011;392;48.838;2.322;2023-06-04T03:57:08;6.27;;;3.90;;
819;SDS011;392;48.838;2.322;2023-06-04T03:59:36;3.77;;;3.40;;
819;SDS011;392;48.838;2.322;2023-06-04T04:02:03;4.50;;;3.40;;
819;SDS011;392;48.838;2.322;2023-06-04T04:04:31;4.67;;;3.23;;
819;SDS011;392;48.838;2.322;2023-06-04T04:06:59;4.03;;;3.70;;
819;SDS011;392;48.838;2.322;2023-06-04T04:09:27;5.30;;;3.40;;
819;SDS011;392;48.838;2.322;2023-06-04T04:11:56;5.10;;;3.70;;
819;SDS011;392;48.838;2.322;2023-06-04T04:14:24;3.20;;;2.90;;
819;SDS011;392;48.838;2.322;2023-06-04T04:16:51;3.40;;;3.10;;
819;SDS011;392;48.838;2.322;2023-06-04T04:19:19;4.53;;;3.17;;
819;SDS011;392;48.838;2.322;2023-06-04T04:21:46;3.50;;;3.20;;
819;SDS011;392;48.838;2.322;2023-06-04T04:24:21;3.40;;;3.10;;
819;SDS011;392;48.838;2.322;2023-06-04T04:26:50;3.57;;;3.20;;
819;SDS011;392;48.838;2.322;2023-06-04T04:29:20;3.23;;;2.90;;
819;SDS011;392;48.838;2.322;2023-06-04T04:31:50;3.27;;;2.90;;
819;SDS011;392;48.838;2.322;2023-06-04T04:34:20;3.70;;;3.50;;
819;SDS011;392;48.838;2.322;2023-06-04T04:36:48;4.33;;;3.40;;
819;SDS011;392;48.838;2.322;2023-06-04T04:39:18;3.37;;;3.10;;
819;SDS011;392;48.838;2.322;2023-06-04T04:41:46;3.97;;;3.63;;
819;SDS011;392;48.838;2.322;2023-06-04T04:44:14;3.50;;;3.20;;
819;SDS011;392;48.838;2.322;2023-06-04T04:46:43;3.60;;;3.30;;
819;SDS011;392;48.838;2.322;2023-06-04T04:49:10;3.80;;;3.50;;
819;SDS011;392;48.838;2.322;2023-06-04T04:51:37;3.33;;;3.03;;
819;SDS011;392;48.838;2.322;2023-06-04T04:54:05;2.50;;;2.40;;
819;SDS011;392;48.838;2.322;2023-06-04T04:56:34;3.90;;;3.40;;
819;SDS011;392;48.838;2.322;2023-06-04T04:59:02;3.57;;;3.27;;
819;SDS011;392;48.838;2.322;2023-06-04T05:01:30;6.87;;;3.53;;
819;SDS011;392;48.838;2.322;2023-06-04T05:03:59;3.90;;;3.60;;
819;SDS011;392;48.838;2.322;2023-06-04T05:06:27;3.50;;;3.30;;
819;SDS011;392;48.838;2.322;2023-06-04T05:08:54;3.67;;;3.17;;
819;SDS011;392;48.838;2.322;2023-06-04T05:11:22;3.80;;;3.00;;
819;SDS011;392;48.838;2.322;2023-06-04T05:13:51;3.40;;;3.17;;
819;SDS011;392;48.838;2.322;2023-06-04T05:16:18;4.00;;;3.40;;
819;SDS011;392;48.838;2.322;2023-06-04T05:18:48;4.37;;;3.97;;
819;SDS011;392;48.838;2.322;2023-06-04T05:21:21;3.67;;;3.33;;
819;SDS011;392;48.838;2.322;2023-06-04T05:23:57;3.07;;;2.87;;
819;SDS011;392;48.838;2.322;2023-06-04T05:26:28;3.93;;;3.33;;
819;SDS011;392;48.838;2.322;2023-06-04T05:28:59;3.50;;;3.20;;
819;SDS011;392;48.838;2.322;2023-06-04T05:31:32;3.83;;;3.40;;
819;SDS011;392;48.838;2.322;2023-06-04T05:34:02;3.57;;;3.37;;
819;SDS011;392;48.838;2.322;2023-06-04T05:36:33;4.00;;;3.10;;
819;SDS011;392;48.838;2.322;2023-06-04T05:39:03;3.70;;;3.23;;
819;SDS011;392;48.838;2.322;2023-06-04T05:41:39;3.30;;;2.90;;
819;SDS011;392;48.838;2.322;2023-06-04T05:44:08;3.43;;;3.13;;
819;SDS011;392;48.838;2.322;2023-06-04T05:46:35;3.83;;;3.53;;
819;SDS011;392;48.838;2.322;2023-06-04T05:49:03;3.47;;;3.27;;
819;SDS011;392;48.838;2.322;2023-06-04T05:51:30;3.23;;;2.93;;
819;SDS011;392;48.838;2.322;2023-06-04T05:53:58;3.17;;;2.87;;
819;SDS011;392;48.838;2.322;2023-06-04T05:56:27;4.27;;;3.77;;
819;SDS011;392;48.838;2.322;2023-06-04T05:58:57;3.43;;;3.20;;
819;SDS011;392;48.838;2.322;2023-06-04T06:01:25;2.90;;;2.70;;
819;SDS011;392;48.838;2.322;2023-06-04T06:03:54;3.43;;;3.23;;
819;SDS011;392;48.838;2.322;2023-06-04T06:06:24;3.07;;;2.87;;
819;SDS011;392;48.838;2.322;2023-06-04T06:08:51;3.13;;;2.93;;
819;SDS011;392;48.838;2.322;2023-06-04T06:11:20;3.33;;;3.13;;
819;SDS011;392;48.838;2.322;2023-06-04T06:13:47;4.07;;;3.77;;
819;SDS011;392;48.838;2.322;2023-06-04T06:16:16;3.30;;;3.00;;
819;SDS011;392;48.838;2.322;2023-06-04T06:18:44;3.60;;;3.40;;
819;SDS011;392;48.838;2.322;2023-06-04T06:21:11;3.90;;;3.60;;
819;SDS011;392;48.838;2.322;2023-06-04T06:23:39;3.47;;;3.17;;
819;SDS011;392;48.838;2.322;2023-06-04T06:26:07;4.03;;;3.63;;
819;SDS011;392;48.838;2.322;2023-06-04T06:28:40;3.57;;;3.33;;
819;SDS011;392;48.838;2.322;2023-06-04T06:31:08;3.97;;;3.67;;
819;SDS011;392;48.838;2.322;2023-06-04T06:33:35;4.10;;;3.80;;
819;SDS011;392;48.838;2.322;2023-06-04T06:36:06;3.60;;;3.40;;
819;SDS011;392;48.838;2.322;2023-06-04T06:38:33;3.70;;;3.40;;
819;SDS011;392;48.838;2.322;2023-06-04T06:41:00;4.00;;;3.70;;
819;SDS011;392;48.838;2.322;2023-06-04T06:43:28;4.13;;;3.67;;
819;SDS011;392;48.838;2.322;2023-06-04T06:45:56;3.70;;;3.50;;
819;SDS011;392;48.838;2.322;2023-06-04T06:48:24;3.97;;;3.73;;
819;SDS011;392;48.838;2.322;2023-06-04T06:50:51;3.80;;;3.60;;
819;SDS011;392;48.838;2.322;2023-06-04T06:53:18;4.00;;;3.70;;
819;SDS011;392;48.838;2.322;2023-06-04T06:55:45;3.47;;;3.27;;
819;SDS011;392;48.838;2.322;2023-06-04T06:58:13;3.73;;;3.53;;
819;SDS011;392;48.838;2.322;2023-06-04T07:00:40;4.40;;;4.00;;
819;SDS011;392;48.838;2.322;2023-06-04T07:03:09;4.40;;;4.10;;
819;SDS011;392;48.838;2.322;2023-06-04T07:05:36;4.60;;;4.20;;
819;SDS011;392;48.838;2.322;2023-06-04T07:08:03;4.30;;;4.10;;
819;SDS011;392;48.838;2.322;2023-06-04T07:10:31;4.27;;;4.07;;
819;SDS011;392;48.838;2.322;2023-06-04T07:12:58;5.37;;;5.03;;
819;SDS011;392;48.838;2.322;2023-06-04T07:15:25;4.73;;;4.33;;
819;SDS011;392;48.838;2.322;2023-06-04T07:17:53;5.57;;;4.90;;
819;SDS011;392;48.838;2.322;2023-06-04T07:20:21;5.33;;;5.03;;
819;SDS011;392;48.838;2.322;2023-06-04T07:22:49;4.50;;;4.30;;
819;SDS011;392;48.838;2.322;2023-06-04T07:25:16;5.37;;;5.10;;
819;SDS011;392;48.838;2.322;2023-06-04T07:27:43;6.37;;;5.27;;
819;SDS011;392;48.838;2.322;2023-06-04T07:30:11;5.33;;;5.13;;
819;SDS011;392;48.838;2.322;2023-06-04T07:32:39;5.27;;;4.97;;
819;SDS011;392;48.838;2.322;2023-06-04T07:35:06;4.80;;;4.50;;
819;SDS011;392;48.838;2.322;2023-06-04T07:37:36;4.63;;;4.30;;
819;SDS011;392;48.838;2.322;2023-06-04T07:40:04;5.47;;;5.10;;
819;SDS011;392;48.838;2.322;2023-06-04T07:42:33;5.33;;;5.03;;
819;SDS011;392;48.838;2.322;2023-06-04T07:45:00;5.87;;;5.47;;
819;SDS011;392;48.838;2.322;2023-06-04T07:47:29;5.33;;;5.03;;
819;SDS011;392;48.838;2.322;2023-06-04T07:49:56;5.77;;;5.37;;
819;SDS011;392;48.838;2.322;2023-06-04T07:52:23;6.60;;;6.10;;
819;SDS011;392;48.838;2.322;2023-06-04T07:54:52;6.00;;;5.70;;
819;SDS011;392;48.838;2.322;2023-06-04T07:57:19;5.83;;;5.43;;
819;SDS011;392;48.838;2.322;2023-06-04T07:59:46;6.47;;;6.17;;
819;SDS011;392;48.838;2.322;2023-06-04T08:02:14;6.30;;;6.10;;
819;SDS011;392;48.838;2.322;2023-06-04T08:04:41;6.67;;;6.27;;
819;SDS011;392;48.838;2.322;2023-06-04T08:07:08;6.20;;;5.80;;
819;SDS011;392;48.838;2.322;2023-06-04T08:09:36;6.60;;;6.30;;
819;SDS011;392;48.838;2.322;2023-06-04T08:12:05;7.57;;;7.17;;
819;SDS011;392;48.838;2.322;2023-06-04T08:14:33;6.60;;;6.40;;
819;SDS011;392;48.838;2.322;2023-06-04T08:17:00;6.67;;;6.47;;
819;SDS011;392;48.838;2.322;2023-06-04T08:19:45;6.40;;;6.20;;
819;SDS011;392;48.838;2.322;2023-06-04T08:22:16;7.27;;;6.77;;
819;SDS011;392;48.838;2.322;2023-06-04T08:25:04;6.93;;;6.63;;
819;SDS011;392;48.838;2.322;2023-06-04T08:27:53;7.50;;;7.00;;
819;SDS011;392;48.838;2.322;2023-06-04T08:30:41;7.20;;;6.90;;
819;SDS011;392;48.838;2.322;2023-06-04T08:33:21;8.10;;;7.80;;
819;SDS011;392;48.838;2.322;2023-06-04T08:35:52;8.30;;;7.80;;
819;SDS011;392;48.838;2.322;2023-06-04T08:38:19;8.20;;;7.90;;
819;SDS011;392;48.838;2.322;2023-06-04T08:40:47;8.23;;;7.67;;
819;SDS011;392;48.838;2.322;2023-06-04T08:43:20;8.80;;;8.40;;
819;SDS011;392;48.838;2.322;2023-06-04T08:45:49;9.10;;;8.80;;
819;SDS011;392;48.838;2.322;2023-06-04T08:48:17;10.10;;;9.60;;
819;SDS011;392;48.838;2.322;2023-06-04T08:50:48;9.00;;;8.70;;
819;SDS011;392;48.838;2.322;2023-06-04T08:53:16;9.80;;;9.20;;
819;SDS011;392;48.838;2.322;2023-06-04T08:55:44;8.90;;;8.50;;
819;SDS011;392;48.838;2.322;2023-06-04T08:58:12;9.73;;;9.23;;
819;SDS011;392;48.838;2.322;2023-06-04T09:00:42;9.00;;;8.63;;
819;SDS011;392;48.838;2.322;2023-06-04T09:03:09;8.80;;;8.40;;
819;SDS011;392;48.838;2.322;2023-06-04T09:05:39;9.70;;;9.20;;
819;SDS011;392;48.838;2.322;2023-06-04T09:08:12;8.77;;;8.47;;
819;SDS011;392;48.838;2.322;2023-06-04T09:10:44;10.13;;;9.73;;
819;SDS011;392;48.838;2.322;2023-06-04T09:13:14;10.13;;;9.70;;
819;SDS011;392;48.838;2.322;2023-06-04T09:15:45;9.57;;;9.17;;
819;SDS011;392;48.838;2.322;2023-06-04T09:18:12;8.83;;;8.40;;
819;SDS011;392;48.838;2.322;2023-06-04T09:20:39;8.93;;;8.53;;
819;SDS011;392;48.838;2.322;2023-06-04T09:23:13;9.07;;;8.53;;
819;SDS011;392;48.838;2.322;2023-06-04T09:25:42;7.97;;;7.70;;
819;SDS011;392;48.838;2.322;2023-06-04T09:28:10;8.40;;;8.00;;
819;SDS011;392;48.838;2.322;2023-06-04T09:30:37;7.77;;;7.47;;
819;SDS011;392;48.838;2.322;2023-06-04T09:33:09;8.03;;;7.53;;
819;SDS011;392;48.838;2.322;2023-06-04T09:35:37;7.23;;;6.93;;
819;SDS011;392;48.838;2.322;2023-06-04T09:38:04;8.73;;;8.43;;
819;SDS011;392;48.838;2.322;2023-06-04T09:40:36;8.10;;;7.80;;
819;SDS011;392;48.838;2.322;2023-06-04T09:43:04;8.20;;;7.80;;
819;SDS011;392;48.838;2.322;2023-06-04T09:45:32;7.87;;;7.47;;
819;SDS011;392;48.838;2.322;2023-06-04T09:48:01;7.70;;;7.40;;
819;SDS011;392;48.838;2.322;2023-06-04T09:50:31;7.73;;;7.43;;
819;SDS011;392;48.838;2.322;2023-06-04T09:53:12;7.33;;;7.10;;
819;SDS011;392;48.838;2.322;2023-06-04T09:55:40;8.07;;;7.57;;
819;SDS011;392;48.838;2.322;2023-06-04T09:58:08;8.33;;;8.03;;
819;SDS011;392;48.838;2.322;2023-06-04T10:00:38;7.70;;;7.40;;
819;SDS011;392;48.838;2.322;2023-06-04T10:03:07;7.30;;;7.00;;
819;SDS011;392;48.838;2.322;2023-06-04T10:05:38;8.97;;;8.40;;
819;SDS011;392;48.838;2.322;2023-06-04T10:08:06;7.90;;;7.60;;
819;SDS011;392;48.838;2.322;2023-06-04T10:10:38;9.33;;;8.87;;
819;SDS011;392;48.838;2.322;2023-06-04T10:13:06;7.73;;;7.47;;
819;SDS011;392;48.838;2.322;2023-06-04T10:15:41;9.40;;;8.90;;
819;SDS011;392;48.838;2.322;2023-06-04T10:18:09;10.13;;;9.70;;
819;SDS011;392;48.838;2.322;2023-06-04T10:20:38;8.93;;;8.63;;
819;SDS011;392;48.838;2.322;2023-06-04T10:23:06;11.03;;;10.53;;
819;SDS011;392;48.838;2.322;2023-06-04T10:25:34;10.50;;;10.00;;
819;SDS011;392;48.838;2.322;2023-06-04T10:28:02;10.37;;;9.90;;
819;SDS011;392;48.838;2.322;2023-06-04T10:30:30;9.43;;;9.03;;
819;SDS011;392;48.838;2.322;2023-06-04T10:32:58;8.97;;;8.57;;
819;SDS011;392;48.838;2.322;2023-06-04T10:35:29;8.40;;;8.00;;
819;SDS011;392;48.838;2.322;2023-06-04T10:38:09;9.03;;;8.57;;
819;SDS011;392;48.838;2.322;2023-06-04T10:40:39;10.43;;;10.03;;
819;SDS011;392;48.838;2.322;2023-06-04T10:43:06;9.57;;;9.27;;
819;SDS011;392;48.838;2.322;2023-06-04T10:45:35;9.43;;;9.10;;
819;SDS011;392;48.838;2.322;2023-06-04T10:48:03;8.30;;;8.00;;
819;SDS011;392;48.838;2.322;2023-06-04T10:50:32;8.93;;;8.57;;
819;SDS011;392;48.838;2.322;2023-06-04T10:53:00;8.20;;;7.80;;
819;SDS011;392;48.838;2.322;2023-06-04T10:55:30;7.87;;;7.47;;
819;SDS011;392;48.838;2.322;2023-06-04T10:58:00;7.70;;;7.40;;
819;SDS011;392;48.838;2.322;2023-06-04T11:00:35;7.43;;;7.13;;
819;SDS011;392;48.838;2.322;2023-06-04T11:03:04;8.20;;;7.90;;
819;SDS011;392;48.838;2.322;2023-06-04T11:05:33;7.57;;;7.20;;
819;SDS011;392;48.838;2.322;2023-06-04T11:08:02;8.83;;;8.40;;
819;SDS011;392;48.838;2.322;2023-06-04T11:10:33;9.47;;;8.97;;
819;SDS011;392;48.838;2.322;2023-06-04T11:13:02;9.03;;;8.73;;
819;SDS011;392;48.838;2.322;2023-06-04T11:18:16;9.80;;;9.50;;
819;SDS011;392;48.838;2.322;2023-06-04T11:20:45;9.77;;;9.37;;
819;SDS011;392;48.838;2.322;2023-06-04T11:23:15;11.07;;;10.67;;
819;SDS011;392;48.838;2.322;2023-06-04T11:25:44;9.67;;;9.27;;
819;SDS011;392;48.838;2.322;2023-06-04T11:28:15;10.30;;;9.77;;
819;SDS011;392;48.838;2.322;2023-06-04T11:30:44;11.20;;;10.70;;
819;SDS011;392;48.838;2.322;2023-06-04T11:33:22;13.70;;;10.33;;
819;SDS011;392;48.838;2.322;2023-06-04T11:35:49;8.73;;;8.33;;
819;SDS011;392;48.838;2.322;2023-06-04T11:38:17;11.30;;;10.80;;
819;SDS011;392;48.838;2.322;2023-06-04T11:40:45;10.40;;;10.00;;
819;SDS011;392;48.838;2.322;2023-06-04T11:43:22;10.03;;;9.57;;
819;SDS011;392;48.838;2.322;2023-06-04T11:45:50;9.90;;;9.47;;
819;SDS011;392;48.838;2.322;2023-06-04T11:48:17;9.20;;;8.90;;
819;SDS011;392;48.838;2.322;2023-06-04T11:50:45;9.50;;;9.10;;
819;SDS011;392;48.838;2.322;2023-06-04T11:53:12;8.90;;;8.50;;
819;SDS011;392;48.838;2.322;2023-06-04T11:55:40;8.30;;;8.00;;
819;SDS011;392;48.838;2.322;2023-06-04T11:58:09;9.60;;;9.20;;
819;SDS011;392;48.838;2.322;2023-06-04T12:00:36;9.10;;;8.70;;
819;SDS011;392;48.838;2.322;2023-06-04T12:03:04;7.63;;;7.33;;
819;SDS011;392;48.838;2.322;2023-06-04T12:05:31;8.90;;;8.40;;
819;SDS011;392;48.838;2.322;2023-06-04T12:08:05;7.83;;;7.33;;
819;SDS011;392;48.838;2.322;2023-06-04T12:10:38;8.43;;;8.03;;
819;SDS011;392;48.838;2.322;2023-06-04T12:13:06;7.73;;;7.33;;
819;SDS011;392;48.838;2.322;2023-06-04T12:15:35;8.40;;;7.80;;
819;SDS011;392;48.838;2.322;2023-06-04T12:18:02;8.10;;;7.70;;
819;SDS011;392;48.838;2.322;2023-06-04T12:20:32;8.17;;;7.87;;
819;SDS011;392;48.838;2.322;2023-06-04T12:23:00;8.07;;;7.67;;
819;SDS011;392;48.838;2.322;2023-06-04T12:25:28;8.73;;;8.30;;
819;SDS011;392;48.838;2.322;2023-06-04T12:27:56;10.03;;;9.63;;
819;SDS011;392;48.838;2.322;2023-06-04T12:30:31;8.67;;;8.30;;
819;SDS011;392;48.838;2.322;2023-06-04T12:33:03;9.00;;;8.50;;
819;SDS011;392;48.838;2.322;2023-06-04T12:35:31;7.07;;;6.67;;
819;SDS011;392;48.838;2.322;2023-06-04T12:38:01;6.93;;;6.57;;
819;SDS011;392;48.838;2.322;2023-06-04T12:40:30;7.40;;;7.10;;
819;SDS011;392;48.838;2.322;2023-06-04T12:42:57;6.90;;;6.60;;
819;SDS011;392;48.838;2.322;2023-06-04T12:45:25;7.10;;;6.80;;
819;SDS011;392;48.838;2.322;2023-06-04T12:47:54;7.00;;;6.60;;
819;SDS011;392;48.838;2.322;2023-06-04T12:50:21;6.60;;;6.30;;
819;SDS011;392;48.838;2.322;2023-06-04T12:52:49;6.97;;;6.57;;
819;SDS011;392;48.838;2.322;2023-06-04T12:55:16;8.07;;;7.47;;
819;SDS011;392;48.838;2.322;2023-06-04T12:57:43;7.33;;;6.90;;
819;SDS011;392;48.838;2.322;2023-06-04T13:00:12;7.27;;;6.83;;
819;SDS011;392;48.838;2.322;2023-06-04T13:02:41;6.80;;;6.50;;
819;SDS011;392;48.838;2.322;2023-06-04T13:05:10;6.77;;;6.47;;
819;SDS011;392;48.838;2.322;2023-06-04T13:07:37;5.60;;;5.30;;
819;SDS011;392;48.838;2.322;2023-06-04T13:10:05;7.40;;;7.00;;
819;SDS011;392;48.838;2.322;2023-06-04T13:12:33;6.27;;;5.97;;
819;SDS011;392;48.838;2.322;2023-06-04T13:15:00;6.10;;;5.90;;
819;SDS011;392;48.838;2.322;2023-06-04T13:17:29;6.60;;;6.10;;
819;SDS011;392;48.838;2.322;2023-06-04T13:19:57;6.60;;;6.20;;
819;SDS011;392;48.838;2.322;2023-06-04T13:22:26;5.73;;;5.37;;
819;SDS011;392;48.838;2.322;2023-06-04T13:24:53;5.07;;;4.87;;
819;SDS011;392;48.838;2.322;2023-06-04T13:27:21;5.47;;;5.27;;
819;SDS011;392;48.838;2.322;2023-06-04T13:29:48;5.40;;;5.00;;
819;SDS011;392;48.838;2.322;2023-06-04T13:32:15;5.00;;;4.70;;
819;SDS011;392;48.838;2.322;2023-06-04T13:34:43;5.30;;;4.90;;
819;SDS011;392;48.838;2.322;2023-06-04T13:37:10;5.10;;;4.80;;
819;SDS011;392;48.838;2.322;2023-06-04T13:39:39;5.17;;;4.97;;
819;SDS011;392;48.838;2.322;2023-06-04T13:42:06;5.20;;;4.90;;
819;SDS011;392;48.838;2.322;2023-06-04T13:44:34;4.67;;;4.40;;
819;SDS011;392;48.838;2.322;2023-06-04T13:47:01;5.10;;;4.80;;
819;SDS011;392;48.838;2.322;2023-06-04T13:49:31;4.70;;;4.43;;
819;SDS011;392;48.838;2.322;2023-06-04T13:51:59;4.43;;;4.23;;
819;SDS011;392;48.838;2.322;2023-06-04T13:54:26;4.33;;;4.13;;
819;SDS011;392;48.838;2.322;2023-06-04T13:56:55;4.77;;;4.57;;
819;SDS011;392;48.838;2.322;2023-06-04T13:59:22;5.00;;;4.60;;
819;SDS011;392;48.838;2.322;2023-06-04T14:01:50;5.30;;;4.97;;
819;SDS011;392;48.838;2.322;2023-06-04T14:04:17;4.80;;;4.50;;
819;SDS011;392;48.838;2.322;2023-06-04T14:06:44;5.10;;;4.80;;
819;SDS011;392;48.838;2.322;2023-06-04T14:09:12;4.50;;;4.23;;
819;SDS011;392;48.838;2.322;2023-06-04T14:11:39;4.90;;;4.43;;
819;SDS011;392;48.838;2.322;2023-06-04T14:14:08;3.70;;;3.60;;
819;SDS011;392;48.838;2.322;2023-06-04T14:16:36;4.23;;;3.97;;
819;SDS011;392;48.838;2.322;2023-06-04T14:19:03;4.80;;;4.60;;
819;SDS011;392;48.838;2.322;2023-06-04T14:21:31;3.37;;;3.27;;
819;SDS011;392;48.838;2.322;2023-06-04T14:23:58;4.27;;;4.07;;
819;SDS011;392;48.838;2.322;2023-06-04T14:26:25;3.83;;;3.63;;
819;SDS011;392;48.838;2.322;2023-06-04T14:28:54;4.07;;;3.87;;
819;SDS011;392;48.838;2.322;2023-06-04T14:31:22;4.87;;;4.57;;
819;SDS011;392;48.838;2.322;2023-06-04T14:33:50;4.43;;;4.23;;
819;SDS011;392;48.838;2.322;2023-06-04T14:36:17;4.17;;;3.80;;
819;SDS011;392;48.838;2.322;2023-06-04T14:38:46;4.00;;;3.80;;
819;SDS011;392;48.838;2.322;2023-06-04T14:41:14;4.30;;;4.00;;
819;SDS011;392;48.838;2.322;2023-06-04T14:43:42;4.30;;;4.10;;
819;SDS011;392;48.838;2.322;2023-06-04T14:46:09;3.93;;;3.73;;
819;SDS011;392;48.838;2.322;2023-06-04T14:48:38;3.73;;;3.53;;
819;SDS011;392;48.838;2.322;2023-06-04T14:51:05;4.00;;;3.80;;
819;SDS011;392;48.838;2.322;2023-06-04T14:53:32;4.37;;;4.07;;
819;SDS011;392;48.838;2.322;2023-06-04T14:56:00;4.40;;;4.10;;
819;SDS011;392;48.838;2.322;2023-06-04T14:58:27;4.20;;;3.90;;
819;SDS011;392;48.838;2.322;2023-06-04T15:00:55;4.00;;;3.80;;
819;SDS011;392;48.838;2.322;2023-06-04T15:03:23;4.07;;;3.87;;
819;SDS011;392;48.838;2.322;2023-06-04T15:05:52;4.43;;;4.03;;
819;SDS011;392;48.838;2.322;2023-06-04T15:08:20;4.70;;;4.50;;
819;SDS011;392;48.838;2.322;2023-06-04T15:10:47;4.97;;;4.70;;
819;SDS011;392;48.838;2.322;2023-06-04T15:13:14;4.27;;;4.07;;
819;SDS011;392;48.838;2.322;2023-06-04T15:15:42;4.67;;;4.27;;
819;SDS011;392;48.838;2.322;2023-06-04T15:18:09;5.00;;;4.60;;
819;SDS011;392;48.838;2.322;2023-06-04T15:20:36;4.13;;;3.90;;
819;SDS011;392;48.838;2.322;2023-06-04T15:23:05;4.20;;;4.00;;
819;SDS011;392;48.838;2.322;2023-06-04T15:25:32;4.67;;;4.37;;
819;SDS011;392;48.838;2.322;2023-06-04T15:28:00;6.03;;;4.20;;
819;SDS011;392;48.838;2.322;2023-06-04T15:30:27;5.00;;;4.70;;
819;SDS011;392;48.838;2.322;2023-06-04T15:32:55;4.53;;;4.30;;
819;SDS011;392;48.838;2.322;2023-06-04T15:35:25;4.40;;;4.20;;
819;SDS011;392;48.838;2.322;2023-06-04T15:37:53;5.07;;;4.77;;
819;SDS011;392;48.838;2.322;2023-06-04T15:40:21;4.87;;;4.57;;
819;SDS011;392;48.838;2.322;2023-06-04T15:42:49;4.70;;;4.50;;
819;SDS011;392;48.838;2.322;2023-06-04T15:45:16;4.27;;;4.10;;
819;SDS011;392;48.838;2.322;2023-06-04T15:47:45;4.53;;;4.13;;
819;SDS011;392;48.838;2.322;2023-06-04T15:50:12;4.50;;;4.20;;
819;SDS011;392;48.838;2.322;2023-06-04T15:52:39;5.73;;;4.90;;
819;SDS011;392;48.838;2.322;2023-06-04T15:55:07;5.03;;;4.73;;
819;SDS011;392;48.838;2.322;2023-06-04T15:57:35;5.10;;;4.70;;